createdAt,value
2023-01-22T00:02:23.021Z,-0.97
2023-01-22T00:04:49.439Z,-0.98
2023-01-22T00:07:16.356Z,-0.95
2023-01-22T00:09:42.633Z,-0.94
2023-01-22T00:12:09.547Z,-0.94
2023-01-22T00:14:36.073Z,-0.93
2023-01-22T00:17:02.370Z,-0.90
2023-01-22T00:19:28.612Z,-0.90
2023-01-22T00:21:54.954Z,-0.88
2023-01-22T00:24:22.211Z,-0.86
2023-01-22T00:26:48.483Z,-0.86
2023-01-22T00:29:14.791Z,-0.83
2023-01-22T00:31:41.104Z,-0.84
2023-01-22T00:34:08.299Z,-0.84
2023-01-22T00:36:34.715Z,-0.88
2023-01-22T00:39:01.699Z,-0.89
2023-01-22T00:41:28.087Z,-0.90
2023-01-22T00:43:54.388Z,-0.90
2023-01-22T00:46:20.690Z,-0.89
2023-01-22T00:48:49.398Z,-0.86
2023-01-22T00:51:16.083Z,-0.87
2023-01-22T00:53:43.694Z,-0.89
2023-01-22T00:56:10.552Z,-0.86
2023-01-22T00:58:36.856Z,-0.85
2023-01-22T01:01:04.121Z,-0.83
2023-01-22T01:03:31.505Z,-0.86
2023-01-22T01:06:05.621Z,-0.87
2023-01-22T01:08:33.866Z,-0.87
2023-01-22T01:11:01.602Z,-0.86
2023-01-22T01:13:28.353Z,-0.85
2023-01-22T01:16:02.078Z,-0.85
2023-01-22T01:18:29.137Z,-0.77
2023-01-22T01:20:56.191Z,-0.78
2023-01-22T01:23:22.825Z,-0.82
2023-01-22T01:25:49.106Z,-0.85
2023-01-22T01:28:15.612Z,-0.85
2023-01-22T01:30:42.048Z,-0.86
2023-01-22T01:33:08.348Z,-0.86
2023-01-22T01:35:34.626Z,-0.87
2023-01-22T01:38:00.883Z,-0.80
2023-01-22T01:40:27.203Z,-0.81
2023-01-22T01:42:53.515Z,-0.84
2023-01-22T01:45:20.979Z,-0.86
2023-01-22T01:47:53.186Z,-0.86
2023-01-22T01:50:20.726Z,-0.88
2023-01-22T01:52:47.306Z,-0.88
2023-01-22T01:55:14.973Z,-0.91
2023-01-22T01:57:41.524Z,-0.87
2023-01-22T02:00:10.547Z,-0.86
2023-01-22T02:02:36.893Z,-0.91
2023-01-22T02:05:04.440Z,-0.95
2023-01-22T02:07:30.702Z,-0.91
2023-01-22T02:09:57.061Z,-0.94
2023-01-22T02:12:23.403Z,-0.90
2023-01-22T02:14:49.911Z,-0.87
2023-01-22T02:17:19.499Z,-0.87
2023-01-22T02:19:45.847Z,-0.89
2023-01-22T02:22:22.841Z,-0.92
2023-01-22T02:24:49.766Z,-0.91
2023-01-22T02:27:16.031Z,-0.94
2023-01-22T02:29:42.344Z,-0.97
2023-01-22T02:32:08.741Z,-0.94
2023-01-22T02:34:34.997Z,-0.97
2023-01-22T02:37:01.271Z,-0.98
2023-01-22T02:39:27.627Z,-0.95
2023-01-22T02:41:54.163Z,-0.98
2023-01-22T02:44:20.428Z,-0.95
2023-01-22T02:46:46.687Z,-0.95
2023-01-22T02:49:13.009Z,-1.02
2023-01-22T02:51:39.368Z,-0.99
2023-01-22T02:54:05.691Z,-0.98
2023-01-22T02:56:33.231Z,-0.96
2023-01-22T02:59:00.356Z,-0.94
2023-01-22T03:01:26.619Z,-0.92
2023-01-22T03:03:54.839Z,-0.96
2023-01-22T03:06:22.401Z,-0.97
2023-01-22T03:08:49.613Z,-0.98
2023-01-22T03:11:15.974Z,-0.98
2023-01-22T03:14:01.051Z,-0.95
2023-01-22T03:16:45.843Z,-0.92
2023-01-22T03:19:30.630Z,-0.93
2023-01-22T03:21:56.921Z,-0.85
2023-01-22T03:24:23.280Z,-0.88
2023-01-22T03:26:49.566Z,-0.86
2023-01-22T03:29:16.029Z,-0.86
2023-01-22T03:31:42.330Z,-0.88
2023-01-22T03:34:08.688Z,-0.85
2023-01-22T03:36:35.001Z,-0.89
2023-01-22T03:39:01.287Z,-0.87
2023-01-22T03:41:27.610Z,-0.85
2023-01-22T03:43:53.899Z,-0.83
2023-01-22T03:46:20.476Z,-0.82
2023-01-22T03:48:50.530Z,-0.83
2023-01-22T03:51:17.362Z,-0.82
2023-01-22T03:53:44.449Z,-0.84
2023-01-22T03:56:11.537Z,-0.81
2023-01-22T03:58:38.160Z,-0.78
2023-01-22T04:01:05.944Z,-0.79
2023-01-22T04:03:32.328Z,-0.77
2023-01-22T04:06:01.801Z,-0.75
2023-01-22T04:08:29.055Z,-0.73
2023-01-22T04:10:55.685Z,-0.72
2023-01-22T04:13:22.397Z,-0.70
2023-01-22T04:15:48.669Z,-0.72
2023-01-22T04:18:14.985Z,-0.67
2023-01-22T04:20:41.268Z,-0.69
2023-01-22T04:23:07.640Z,-0.71
2023-01-22T04:25:34.064Z,-0.68
2023-01-22T04:28:00.391Z,-0.60
2023-01-22T04:30:26.779Z,-0.70
2023-01-22T04:32:53.095Z,-0.75
2023-01-22T04:35:19.523Z,-0.69
2023-01-22T04:37:45.795Z,-0.70
2023-01-22T04:40:12.174Z,-0.69
2023-01-22T04:42:38.418Z,-0.70
2023-01-22T04:45:04.891Z,-0.66
2023-01-22T04:47:31.192Z,-0.69
2023-01-22T04:49:57.467Z,-0.69
2023-01-22T04:52:23.758Z,-0.67
2023-01-22T04:54:51.855Z,-0.66
2023-01-22T04:57:18.105Z,-0.67
2023-01-22T04:59:44.474Z,-0.68
2023-01-22T05:02:10.756Z,-0.64
2023-01-22T05:04:37.034Z,-0.62
2023-01-22T05:07:03.294Z,-0.63
2023-01-22T05:09:29.567Z,-0.62
2023-01-22T05:11:55.828Z,-0.62
2023-01-22T05:14:22.153Z,-0.63
2023-01-22T05:16:49.228Z,-0.64
2023-01-22T05:19:15.920Z,-0.61
2023-01-22T05:21:42.196Z,-0.57
2023-01-22T05:24:09.125Z,-0.57
2023-01-22T05:26:35.398Z,-0.56
2023-01-22T05:29:01.741Z,-0.58
2023-01-22T05:31:28.049Z,-0.59
2023-01-22T05:33:54.349Z,-0.60
2023-01-22T05:36:20.661Z,-0.57
2023-01-22T05:38:46.984Z,-0.57
2023-01-22T05:41:13.249Z,-0.54
2023-01-22T05:43:39.668Z,-0.54
2023-01-22T05:46:06.271Z,-0.48
2023-01-22T05:48:33.028Z,-0.49
2023-01-22T05:51:06.751Z,-0.47
2023-01-22T05:53:33.563Z,-0.48
2023-01-22T05:56:03.072Z,-0.48
2023-01-22T05:58:29.869Z,-0.48
2023-01-22T06:00:56.678Z,-0.41
2023-01-22T06:03:23.136Z,-0.44
2023-01-22T06:06:02.764Z,-0.45
2023-01-22T06:08:29.503Z,-0.42
2023-01-22T06:11:02.605Z,-0.33
2023-01-22T06:13:28.921Z,-0.37
2023-01-22T06:15:55.364Z,-0.38
2023-01-22T06:18:22.295Z,-0.34
2023-01-22T06:20:48.620Z,-0.28
2023-01-22T06:23:15.071Z,-0.30
2023-01-22T06:25:41.385Z,-0.25
2023-01-22T06:28:07.684Z,-0.28
2023-01-22T06:30:33.962Z,-0.27
2023-01-22T06:33:00.227Z,-0.25
2023-01-22T06:35:26.515Z,-0.25
2023-01-22T06:37:52.821Z,-0.27
2023-01-22T06:40:19.519Z,-0.24
2023-01-22T06:42:46.003Z,-0.23
2023-01-22T06:45:12.382Z,-0.20
2023-01-22T06:47:42.868Z,-0.20
2023-01-22T06:50:09.532Z,-0.17
2023-01-22T06:52:35.986Z,-0.17
2023-01-22T06:55:02.288Z,-0.16
2023-01-22T06:57:28.636Z,-0.12
2023-01-22T06:59:54.911Z,-0.12
2023-01-22T07:02:21.363Z,-0.12
2023-01-22T07:04:47.777Z,-0.13
2023-01-22T07:07:14.157Z,-0.12
2023-01-22T07:09:40.612Z,-0.12
2023-01-22T07:12:06.880Z,-0.09
2023-01-22T07:14:37.556Z,-0.10
2023-01-22T07:17:04.184Z,-0.06
2023-01-22T07:19:30.449Z,-0.07
2023-01-22T07:21:56.759Z,-0.06
2023-01-22T07:24:23.139Z,-0.04
2023-01-22T07:26:49.458Z,-0.02
2023-01-22T07:29:30.854Z,-0.01
2023-01-22T07:31:57.235Z,0.00
2023-01-22T07:34:23.580Z,0.01
2023-01-22T07:36:49.928Z,0.01
2023-01-22T07:39:16.202Z,0.02
2023-01-22T07:41:42.465Z,0.03
2023-01-22T07:44:08.823Z,0.02
2023-01-22T07:46:35.341Z,0.02
2023-01-22T07:49:01.621Z,0.04
2023-01-22T07:51:27.992Z,0.05
2023-01-22T07:53:54.840Z,0.06
2023-01-22T07:56:21.280Z,0.06
2023-01-22T07:58:47.563Z,0.06
2023-01-22T08:01:14.111Z,0.07
2023-01-22T08:03:40.535Z,0.08
2023-01-22T08:06:08.128Z,0.10
2023-01-22T08:08:34.409Z,0.10
2023-01-22T08:11:00.770Z,0.11
2023-01-22T08:13:27.060Z,0.13
2023-01-22T08:15:55.057Z,0.15
2023-01-22T08:18:23.053Z,0.17
2023-01-22T08:20:49.593Z,0.17
2023-01-22T08:23:15.993Z,0.18
2023-01-22T08:25:42.266Z,0.22
2023-01-22T08:28:08.612Z,0.24
2023-01-22T08:30:45.458Z,0.22
2023-01-22T08:33:12.278Z,0.21
2023-01-22T08:35:38.919Z,0.23
2023-01-22T08:38:05.202Z,0.28
2023-01-22T08:40:31.490Z,0.29
2023-01-22T08:42:57.767Z,0.30
2023-01-22T08:45:24.066Z,0.30
2023-01-22T08:47:51.435Z,0.31
2023-01-22T08:50:18.124Z,0.34
2023-01-22T08:52:44.538Z,0.35
2023-01-22T08:55:11.017Z,0.37
2023-01-22T08:57:37.309Z,0.38
2023-01-22T09:00:04.375Z,0.38
2023-01-22T09:02:30.692Z,0.41
2023-01-22T09:04:56.978Z,0.45
2023-01-22T09:07:23.456Z,0.46
2023-01-22T09:09:50.290Z,0.48
2023-01-22T09:12:16.633Z,0.50
2023-01-22T09:14:42.921Z,0.52
2023-01-22T09:17:09.305Z,0.54
2023-01-22T09:19:35.594Z,0.65
2023-01-22T09:22:06.272Z,0.64
2023-01-22T09:24:33.004Z,0.70
2023-01-22T09:27:00.270Z,0.78
2023-01-22T09:29:32.489Z,0.78
2023-01-22T09:31:58.917Z,0.83
2023-01-22T09:34:31.219Z,0.84
2023-01-22T09:36:57.543Z,0.85
2023-01-22T09:39:23.867Z,0.89
2023-01-22T09:41:52.767Z,0.95
2023-01-22T09:44:31.805Z,1.01
2023-01-22T09:47:00.116Z,0.98
2023-01-22T09:49:31.466Z,0.95
2023-01-22T09:51:59.386Z,0.98
2023-01-22T09:54:26.202Z,1.00
2023-01-22T09:56:53.385Z,1.03
2023-01-22T09:59:21.714Z,1.14
2023-01-22T10:01:55.982Z,1.14
2023-01-22T10:04:29.516Z,1.19
2023-01-22T10:06:57.091Z,1.14
2023-01-22T10:09:24.527Z,1.17
2023-01-22T10:11:53.862Z,1.20
2023-01-22T10:14:21.458Z,1.19
2023-01-22T10:16:49.019Z,1.19
2023-01-22T10:19:24.788Z,1.24
2023-01-22T10:21:54.831Z,1.29
2023-01-22T10:24:21.173Z,1.27
2023-01-22T10:26:48.912Z,1.28
2023-01-22T10:29:22.479Z,1.30
2023-01-22T10:31:51.934Z,1.32
2023-01-22T10:34:31.258Z,1.29
2023-01-22T10:37:00.085Z,1.28
2023-01-22T10:39:26.414Z,1.30
2023-01-22T10:42:00.083Z,1.31
2023-01-22T10:44:26.767Z,1.30
2023-01-22T10:46:54.088Z,1.31
2023-01-22T10:49:22.516Z,1.32
2023-01-22T10:51:53.262Z,1.34
2023-01-22T10:54:21.403Z,1.36
2023-01-22T10:56:48.428Z,1.42
2023-01-22T10:59:18.240Z,1.46
2023-01-22T11:01:44.555Z,1.61
2023-01-22T11:04:15.300Z,1.60
2023-01-22T11:06:50.280Z,1.61
2023-01-22T11:09:19.967Z,1.61
2023-01-22T11:11:54.950Z,1.57
2023-01-22T11:14:23.345Z,1.59
2023-01-22T11:16:51.660Z,1.62
2023-01-22T11:19:36.041Z,1.71
2023-01-22T11:22:03.519Z,1.72
2023-01-22T11:24:37.651Z,1.75
2023-01-22T11:27:04.145Z,1.77
2023-01-22T11:29:49.114Z,1.91
2023-01-22T11:32:24.565Z,1.94
2023-01-22T11:34:59.927Z,1.89
2023-01-22T11:37:46.186Z,1.93
2023-01-22T11:40:12.428Z,2.00
2023-01-22T11:42:44.794Z,1.97
2023-01-22T11:45:31.349Z,1.87
2023-01-22T11:48:16.604Z,1.87
2023-01-22T11:50:59.414Z,2.06
2023-01-22T11:53:43.509Z,1.97
2023-01-22T11:56:17.758Z,1.97
2023-01-22T11:58:47.647Z,1.93
2023-01-22T12:01:52.648Z,1.97
2023-01-22T12:04:31.128Z,1.94
2023-01-22T12:07:06.953Z,1.90
2023-01-22T12:09:39.941Z,1.91
2023-01-22T12:12:32.941Z,1.92
2023-01-22T12:15:17.835Z,1.92
2023-01-22T12:17:59.409Z,1.89
2023-01-22T12:20:41.042Z,1.91
2023-01-22T12:23:14.270Z,1.85
2023-01-22T12:25:50.960Z,1.87
2023-01-22T12:28:29.491Z,1.89
2023-01-22T12:31:03.064Z,1.89
2023-01-22T12:33:31.196Z,1.90
2023-01-22T12:36:01.022Z,1.93
2023-01-22T12:38:35.428Z,1.93
2023-01-22T12:41:20.494Z,1.92
2023-01-22T12:43:50.561Z,1.93
2023-01-22T12:46:19.690Z,1.88
2023-01-22T12:48:55.022Z,1.88
2023-01-22T12:52:00.244Z,1.87
2023-01-22T12:54:27.468Z,1.84
2023-01-22T12:56:57.418Z,1.85
2023-01-22T12:59:35.674Z,1.87
2023-01-22T13:02:03.512Z,1.89
2023-01-22T13:04:30.769Z,1.90
2023-01-22T13:07:18.241Z,1.88
2023-01-22T13:09:44.555Z,1.88
2023-01-22T13:12:24.392Z,1.89
2023-01-22T13:14:50.727Z,1.84
2023-01-22T13:17:19.152Z,1.81
2023-01-22T13:19:46.378Z,1.84
2023-01-22T13:22:26.767Z,1.83
2023-01-22T13:24:54.206Z,1.86
2023-01-22T13:27:23.241Z,1.84
2023-01-22T13:29:49.508Z,1.79
2023-01-22T13:32:20.505Z,1.77
2023-01-22T13:34:46.816Z,1.74
2023-01-22T13:37:23.345Z,1.80
2023-01-22T13:39:49.661Z,1.76
2023-01-22T13:42:19.410Z,1.81
2023-01-22T13:44:49.825Z,1.78
2023-01-22T13:47:25.070Z,1.77
2023-01-22T13:49:51.388Z,1.78
2023-01-22T13:52:18.905Z,1.79
2023-01-22T13:54:59.167Z,1.80
2023-01-22T13:57:25.506Z,1.83
2023-01-22T13:59:53.263Z,1.85
2023-01-22T14:02:19.912Z,1.84
2023-01-22T14:04:46.897Z,1.94
2023-01-22T14:07:23.043Z,1.91
2023-01-22T14:09:49.563Z,1.92
2023-01-22T14:12:18.069Z,1.92
2023-01-22T14:14:44.497Z,2.01
2023-01-22T14:17:28.728Z,2.03
2023-01-22T14:19:55.781Z,2.04
2023-01-22T14:22:22.521Z,2.08
2023-01-22T14:24:52.437Z,2.10
2023-01-22T14:27:23.297Z,2.13
2023-01-22T14:29:52.840Z,2.10
2023-01-22T14:32:19.156Z,2.08
2023-01-22T14:34:45.519Z,2.08
2023-01-22T14:37:17.826Z,2.10
2023-01-22T14:39:44.307Z,2.12
2023-01-22T14:42:10.582Z,2.16
2023-01-22T14:44:37.082Z,2.14
2023-01-22T14:47:04.160Z,2.18
2023-01-22T14:49:30.722Z,2.28
2023-01-22T14:51:57.208Z,2.39
2023-01-22T14:54:24.987Z,2.29
2023-01-22T14:56:51.357Z,2.32
2023-01-22T14:59:19.472Z,2.36
2023-01-22T15:01:47.086Z,2.36
2023-01-22T15:04:14.976Z,2.38
2023-01-22T15:06:41.368Z,2.33
2023-01-22T15:09:07.796Z,2.30
2023-01-22T15:11:34.117Z,2.34
2023-01-22T15:14:00.458Z,2.44
2023-01-22T15:16:26.865Z,2.53
2023-01-22T15:18:55.906Z,2.41
2023-01-22T15:21:22.589Z,2.37
2023-01-22T15:23:49.481Z,2.34
2023-01-22T15:26:37.710Z,2.28
2023-01-22T15:29:05.145Z,2.24
2023-01-22T15:31:31.835Z,2.26
2023-01-22T15:34:00.548Z,2.25
2023-01-22T15:36:26.832Z,2.23
2023-01-22T15:38:53.109Z,2.23
2023-01-22T15:41:21.352Z,2.22
2023-01-22T15:43:50.827Z,2.28
2023-01-22T15:46:21.311Z,2.24
2023-01-22T15:48:47.727Z,2.25
2023-01-22T15:51:15.346Z,2.31
2023-01-22T15:53:42.813Z,2.37
2023-01-22T15:56:09.167Z,2.30
2023-01-22T15:58:35.487Z,2.36
2023-01-22T16:01:01.865Z,2.38
2023-01-22T16:03:28.215Z,2.47
2023-01-22T16:05:54.503Z,2.35
2023-01-22T16:08:21.553Z,2.31
2023-01-22T16:10:47.874Z,2.32
2023-01-22T16:13:14.148Z,2.31
2023-01-22T16:15:40.411Z,2.31
2023-01-22T16:18:08.029Z,2.43
2023-01-22T16:20:34.427Z,2.45
2023-01-22T16:23:00.715Z,2.51
2023-01-22T16:25:27.020Z,2.33
2023-01-22T16:27:54.363Z,2.32
2023-01-22T16:30:20.844Z,2.32
2023-01-22T16:32:47.287Z,2.28
2023-01-22T16:35:13.655Z,2.44
2023-01-22T16:37:39.948Z,2.41
2023-01-22T16:40:07.291Z,2.41
2023-01-22T16:42:34.551Z,2.30
2023-01-22T16:45:00.889Z,2.31
2023-01-22T16:47:36.352Z,2.22
2023-01-22T16:50:02.761Z,2.30
2023-01-22T16:52:29.190Z,2.22
2023-01-22T16:54:55.467Z,2.17
2023-01-22T16:57:21.755Z,2.13
2023-01-22T16:59:48.076Z,2.11
2023-01-22T17:02:15.730Z,2.09
2023-01-22T17:04:42.019Z,2.26
2023-01-22T17:07:15.386Z,2.17
2023-01-22T17:09:47.092Z,2.23
2023-01-22T17:12:13.381Z,2.15
2023-01-22T17:14:39.724Z,2.07
2023-01-22T17:17:06.923Z,2.05
2023-01-22T17:19:33.209Z,2.06
2023-01-22T17:21:59.559Z,2.05
2023-01-22T17:24:26.744Z,2.03
2023-01-22T17:26:53.102Z,2.07
2023-01-22T17:29:19.844Z,2.11
2023-01-22T17:31:46.264Z,2.09
2023-01-22T17:34:12.697Z,2.06
2023-01-22T17:36:39.649Z,2.08
2023-01-22T17:39:06.097Z,2.05
2023-01-22T17:41:32.757Z,2.03
2023-01-22T17:43:59.363Z,2.03
2023-01-22T17:46:35.020Z,2.04
2023-01-22T17:49:04.340Z,2.02
2023-01-22T17:51:32.259Z,1.99
2023-01-22T17:53:59.423Z,1.98
2023-01-22T17:56:37.806Z,1.98
2023-01-22T17:59:05.683Z,2.02
2023-01-22T18:01:46.910Z,1.99
2023-01-22T18:04:13.765Z,1.99
2023-01-22T18:06:41.298Z,1.96
2023-01-22T18:09:08.228Z,1.99
2023-01-22T18:11:34.950Z,1.97
2023-01-22T18:14:05.639Z,1.93
2023-01-22T18:16:32.937Z,1.90
2023-01-22T18:19:01.579Z,1.87
2023-01-22T18:21:28.887Z,1.81
2023-01-22T18:23:55.575Z,1.79
2023-01-22T18:26:23.089Z,1.87
2023-01-22T18:28:50.163Z,1.84
2023-01-22T18:31:17.139Z,1.79
2023-01-22T18:33:45.876Z,1.83
2023-01-22T18:36:13.455Z,1.83
2023-01-22T18:38:40.268Z,1.80
2023-01-22T18:41:26.852Z,1.77
2023-01-22T18:43:57.437Z,1.75
2023-01-22T18:46:28.388Z,1.70
2023-01-22T18:48:55.868Z,1.73
2023-01-22T18:51:22.820Z,1.68
2023-01-22T18:53:49.402Z,1.67
2023-01-22T18:56:15.808Z,1.68
2023-01-22T18:58:44.596Z,1.65
2023-01-22T19:01:12.220Z,1.66
2023-01-22T19:03:39.786Z,1.66
2023-01-22T19:06:13.383Z,1.64
2023-01-22T19:08:43.696Z,1.65
2023-01-22T19:11:12.049Z,1.62
2023-01-22T19:13:39.672Z,1.66
2023-01-22T19:16:06.941Z,1.67
2023-01-22T19:18:33.679Z,1.67
2023-01-22T19:21:06.827Z,1.75
2023-01-22T19:23:34.481Z,1.71
2023-01-22T19:26:08.049Z,1.64
2023-01-22T19:28:34.315Z,1.63
2023-01-22T19:31:00.686Z,1.60
2023-01-22T19:33:27.762Z,1.61
2023-01-22T19:35:57.284Z,1.62
2023-01-22T19:38:23.689Z,1.61
2023-01-22T19:40:49.968Z,1.60
2023-01-22T19:43:16.238Z,1.60
2023-01-22T19:45:42.505Z,1.58
2023-01-22T19:48:08.857Z,1.57
2023-01-22T19:50:35.202Z,1.61
2023-01-22T19:53:01.510Z,1.65
2023-01-22T19:55:29.616Z,1.66
2023-01-22T19:57:56.063Z,1.67
2023-01-22T20:00:23.151Z,1.66
2023-01-22T20:02:49.493Z,1.66
2023-01-22T20:05:20.412Z,1.65
2023-01-22T20:07:47.424Z,1.65
2023-01-22T20:10:15.370Z,1.71
2023-01-22T20:12:43.252Z,1.73
2023-01-22T20:15:09.933Z,1.76
2023-01-22T20:17:37.060Z,1.79
2023-01-22T20:20:04.946Z,1.80
2023-01-22T20:22:31.517Z,1.83
2023-01-22T20:24:57.795Z,1.84
2023-01-22T20:27:24.089Z,1.87
2023-01-22T20:29:50.379Z,1.84
2023-01-22T20:32:17.047Z,1.83
2023-01-22T20:34:48.573Z,1.83
2023-01-22T20:37:15.253Z,1.89
2023-01-22T20:39:41.613Z,1.90
2023-01-22T20:42:07.875Z,1.95
2023-01-22T20:44:34.913Z,1.94
2023-01-22T20:47:04.088Z,1.97
2023-01-22T20:49:30.493Z,1.90
2023-01-22T20:51:56.857Z,1.85
2023-01-22T20:54:24.210Z,1.84
2023-01-22T20:56:50.482Z,1.80
2023-01-22T20:59:18.374Z,1.74
2023-01-22T21:01:44.879Z,1.71
2023-01-22T21:04:11.925Z,1.72
2023-01-22T21:06:39.516Z,1.68
2023-01-22T21:09:06.576Z,1.66
2023-01-22T21:11:33.879Z,1.64
2023-01-22T21:14:01.235Z,1.66
2023-01-22T21:16:29.977Z,1.66
2023-01-22T21:18:57.977Z,1.62
2023-01-22T21:21:24.648Z,1.60
2023-01-22T21:23:52.122Z,1.57
2023-01-22T21:26:22.783Z,1.53
2023-01-22T21:28:56.503Z,1.47
2023-01-22T21:31:23.505Z,1.48
2023-01-22T21:33:52.425Z,1.46
2023-01-22T21:36:19.209Z,1.50
2023-01-22T21:38:46.872Z,1.47
2023-01-22T21:41:15.313Z,1.47
2023-01-22T21:44:01.227Z,1.43
2023-01-22T21:46:29.543Z,1.41
2023-01-22T21:48:58.261Z,1.40
2023-01-22T21:51:25.808Z,1.42
2023-01-22T21:53:52.977Z,1.37
2023-01-22T21:56:19.295Z,1.41
2023-01-22T21:58:45.575Z,1.42
2023-01-22T22:01:16.568Z,1.45
2023-01-22T22:03:43.111Z,1.36
2023-01-22T22:06:10.440Z,1.37
2023-01-22T22:08:37.285Z,1.33
2023-01-22T22:11:03.984Z,1.36
2023-01-22T22:13:31.867Z,1.30
2023-01-22T22:16:02.082Z,1.27
2023-01-22T22:18:28.489Z,1.24
2023-01-22T22:20:55.009Z,1.21
2023-01-22T22:23:21.276Z,1.22
2023-01-22T22:25:48.771Z,1.23
2023-01-22T22:28:15.043Z,1.20
2023-01-22T22:30:41.369Z,1.22
2023-01-22T22:33:07.652Z,1.20
2023-01-22T22:35:33.948Z,1.17
2023-01-22T22:38:00.200Z,1.16
2023-01-22T22:40:26.485Z,1.19
2023-01-22T22:42:53.374Z,1.20
2023-01-22T22:45:19.765Z,1.23
2023-01-22T22:47:46.044Z,1.36
2023-01-22T22:50:12.350Z,1.23
2023-01-22T22:52:38.732Z,1.20
2023-01-22T22:55:05.256Z,1.13
2023-01-22T22:57:31.524Z,1.09
2023-01-22T22:59:57.835Z,1.04
2023-01-22T23:02:24.115Z,1.07
2023-01-22T23:04:50.432Z,1.02
2023-01-22T23:07:16.693Z,0.99
2023-01-22T23:09:43.000Z,0.98
2023-01-22T23:12:09.299Z,0.98
2023-01-22T23:14:35.572Z,0.97
2023-01-22T23:17:02.299Z,0.98
2023-01-22T23:19:28.631Z,0.96
2023-01-22T23:21:56.198Z,0.98
2023-01-22T23:24:22.704Z,0.98
2023-01-22T23:26:49.515Z,0.99
2023-01-22T23:29:20.245Z,0.99
2023-01-22T23:31:46.856Z,1.04
2023-01-22T23:34:17.563Z,1.05
2023-01-22T23:36:45.100Z,1.03
2023-01-22T23:39:12.366Z,1.04
2023-01-22T23:41:38.634Z,1.02
2023-01-22T23:44:05.106Z,1.02
2023-01-22T23:46:32.001Z,1.01
2023-01-22T23:48:58.996Z,1.03
2023-01-22T23:51:26.272Z,1.04
2023-01-22T23:53:53.047Z,1.05
2023-01-22T23:56:20.405Z,1.03
2023-01-22T23:58:46.835Z,1.04
